Terminal Aerodrome Forecast
Issued by NWS North Platte, NE

Home | Current Version | Previous Version | Graphics & Text | Print | Product List | Glossary On
Versions: 1 2 3 4 5 6 7 8 9 10 11 12 13 14 15 16 17 18 19 20 21
000
FTUS43 KLBF 020500
TAFVTN
TAF
KVTN 020520Z 0206/0306 22004KT P6SM SCT090 BKN250
     FM021200 15010KT P6SM BKN090
     FM021600 17020G29KT P6SM SCT090
     FM030300 18012G19KT 6SM -SN BKN015 OVC040=

USA.gov is the U.S. government's official web portal to all federal, state and local government web resources and services.